Time;durP1;ratioP1;P1;durP2;ratioP2;P2;SDS_P1;SDS_P2;PMS_P1;PMS_P2;Temp;Humidity;BMP_temperature;BMP_pressure;BME280_temperature;BME280_humidity;BME280_pressure;Samples;Min_cycle;Max_cycle;Signal;HPM_P1;HPM_P2
2021/12/14 00:01:23;;;;;;;4.10;1.60;;;;;;;19.71;44.67;102565.41;5009549;28;20047;-73
2021/12/14 00:03:57;;;;;;;3.63;1.20;;;;;;;19.69;44.65;102573.53;5008531;28;20050;-72
2021/12/14 00:06:24;;;;;;;4.10;1.40;;;;;;;19.66;44.69;102568.28;5011802;28;20034;-72
2021/12/14 00:08:57;;;;;;;3.47;1.45;;;;;;;19.66;44.88;102576.31;5008171;28;20034;-71
2021/12/14 00:16:51;;;;;;;2.85;1.50;;;;;;;19.61;44.84;102569.41;5015605;28;20042;-72
2021/12/14 00:19:18;;;;;;;3.80;1.40;;;;;;;19.59;44.67;102561.47;5015222;28;20050;-72
2021/12/14 00:21:50;;;;;;;3.47;1.50;;;;;;;19.58;44.78;102566.88;5016628;28;20057;-72
2021/12/14 00:24:19;;;;;;;4.07;1.55;;;;;;;19.55;44.69;102565.19;5014693;28;20229;-72
2021/12/14 00:26:54;;;;;;;5.03;1.65;;;;;;;19.54;44.75;102566.13;5016009;28;20828;-72
2021/12/14 00:29:33;;;;;;;2.95;1.30;;;;;;;19.52;44.84;102568.88;5015497;28;20042;-72
2021/12/14 00:32:06;;;;;;;2.78;1.15;;;;;;;19.51;44.84;102575.13;5026668;28;20094;-72
2021/12/14 00:34:37;;;;;;;3.13;1.30;;;;;;;19.49;44.84;102577.00;5008694;28;20134;-74
2021/12/14 00:37:24;;;;;;;2.95;1.52;;;;;;;19.48;44.87;102574.41;5006552;28;20034;-71
2021/12/14 00:39:54;;;;;;;2.38;1.10;;;;;;;19.46;44.83;102573.59;5005282;28;20039;-72
2021/12/14 00:42:21;;;;;;;3.28;1.40;;;;;;;19.45;44.83;102575.41;5005726;28;20125;-73
2021/12/14 00:44:47;;;;;;;2.97;1.45;;;;;;;19.42;44.89;102567.50;5008956;28;20078;-72
2021/12/14 00:47:13;;;;;;;2.63;1.30;;;;;;;19.41;44.88;102573.78;5007269;28;20054;-73
2021/12/14 00:49:40;;;;;;;2.83;1.50;;;;;;;19.39;44.93;102568.50;5006126;28;20848;-72
2021/12/14 00:52:09;;;;;;;2.90;1.20;;;;;;;19.39;44.91;102572.97;5006405;28;20043;-72
2021/12/14 00:54:39;;;;;;;2.67;1.40;;;;;;;19.38;44.85;102572.09;5007194;28;20122;-72
2021/12/14 00:57:07;;;;;;;3.85;1.20;;;;;;;19.37;44.95;102574.84;5008832;28;20041;-72
2021/12/14 00:59:34;;;;;;;2.63;1.40;;;;;;;19.35;44.85;102571.34;5007583;28;20042;-72
2021/12/14 01:02:10;;;;;;;3.05;1.38;;;;;;;19.33;44.91;102579.41;5005564;28;20039;-72
2021/12/14 01:04:44;;;;;;;2.58;1.10;;;;;;;19.33;45.01;102589.25;5008084;28;20491;-72
2021/12/14 01:07:14;;;;;;;2.95;1.35;;;;;;;19.32;45.06;102592.88;5008525;28;20133;-71
2021/12/14 01:09:47;;;;;;;2.55;1.40;;;;;;;19.30;44.92;102610.75;5005543;28;20125;-72
2021/12/14 01:12:29;;;;;;;3.85;1.48;;;;;;;19.29;45.01;102617.03;5016357;28;20043;-72
2021/12/14 01:15:23;;;;;;;2.35;1.13;;;;;;;19.27;45.02;102616.25;5022817;28;20188;-74
2021/12/14 01:21:29;;;;;;;3.10;1.30;;;;;;;19.23;45.00;102597.66;5008310;28;21161;-74
2021/12/14 01:24:06;;;;;;;1.63;1.10;;;;;;;19.22;44.95;102603.91;5008757;28;20077;-72
2021/12/14 01:26:38;;;;;;;2.45;1.27;;;;;;;19.21;45.27;102607.53;5009462;28;20088;-72
2021/12/14 01:29:09;;;;;;;3.22;1.35;;;;;;;19.19;45.13;102590.66;5010613;28;20134;-73
2021/12/14 01:31:40;;;;;;;2.95;1.30;;;;;;;19.17;44.97;102597.91;5011867;28;20105;-73
2021/12/14 01:34:12;;;;;;;1.92;1.10;;;;;;;19.16;45.09;102595.25;5015679;28;20061;-72
2021/12/14 01:36:45;;;;;;;1.60;1.10;;;;;;;19.16;45.05;102597.94;5014864;28;20542;-73
2021/12/14 01:42:07;;;;;;;1.95;1.20;;;;;;;19.13;45.04;102592.72;5008027;28;20046;-73
2021/12/14 01:44:45;;;;;;;2.28;1.25;;;;;;;19.12;45.16;102588.31;5007016;28;20401;-72
2021/12/14 01:47:22;;;;;;;2.80;1.30;;;;;;;19.10;45.09;102583.00;5029735;28;20046;-71
2021/12/14 01:50:26;;;;;;;2.38;1.17;;;;;;;19.08;45.20;102572.38;5017766;28;20030;-73
2021/12/14 01:53:11;;;;;;;2.72;1.13;;;;;;;19.06;45.26;102558.19;5017236;28;20574;-71
2021/12/14 01:55:40;;;;;;;2.92;1.20;;;;;;;19.06;45.22;102568.91;5017674;28;20045;-72
2021/12/14 01:58:10;;;;;;;2.63;1.25;;;;;;;19.04;45.21;102554.72;5015594;28;20758;-71
2021/12/14 02:00:44;;;;;;;2.08;1.30;;;;;;;19.03;45.28;102560.13;5034438;28;20043;-72
2021/12/14 02:03:14;;;;;;;1.80;1.20;;;;;;;19.02;45.26;102548.59;5017206;28;20068;-72
2021/12/14 02:05:51;;;;;;;1.90;1.13;;;;;;;19.00;45.25;102549.56;5006118;28;20042;-72
2021/12/14 02:08:25;;;;;;;2.40;1.13;;;;;;;19.00;45.38;102538.84;5034278;28;20046;-72
2021/12/14 02:10:55;;;;;;;2.38;1.13;;;;;;;18.98;45.30;102538.03;5007792;28;20046;-73
2021/12/14 02:13:38;;;;;;;2.03;1.30;;;;;;;18.98;45.26;102548.72;5016608;28;20041;-72
2021/12/14 02:16:08;;;;;;;1.35;0.93;;;;;;;18.96;45.32;102543.47;5019160;28;20038;-73
2021/12/14 02:18:34;;;;;;;2.65;1.20;;;;;;;18.95;45.44;102540.84;5009740;28;20038;-72
2021/12/14 02:21:09;;;;;;;2.25;1.05;;;;;;;18.93;45.43;102547.13;5012691;28;20034;-72
2021/12/14 02:23:40;;;;;;;3.05;1.40;;;;;;;18.92;45.32;102550.69;5011399;28;20035;-73
2021/12/14 02:26:14;;;;;;;3.47;1.20;;;;;;;18.91;45.31;102546.28;5009838;28;20078;-72
2021/12/14 02:28:39;;;;;;;2.45;1.20;;;;;;;18.89;45.30;102541.94;5010529;28;20038;-71
2021/12/14 02:31:10;;;;;;;1.33;1.10;;;;;;;18.90;45.38;102538.34;5009486;28;25874;-74
2021/12/14 02:33:41;;;;;;;2.15;1.10;;;;;;;18.89;45.42;102555.28;5008940;28;20047;-72
2021/12/14 02:36:18;;;;;;;2.88;1.33;;;;;;;18.88;45.39;102545.53;4996208;28;20096;-74
2021/12/14 02:38:52;;;;;;;3.97;1.30;;;;;;;18.86;45.42;102552.72;5014470;28;20070;-72
2021/12/14 02:41:18;;;;;;;1.50;0.93;;;;;;;18.85;45.44;102543.84;5012009;28;20046;-72
2021/12/14 02:43:56;;;;;;;2.20;1.30;;;;;;;18.84;45.56;102539.44;5012604;28;20031;-72
2021/12/14 02:46:45;;;;;;;2.13;1.13;;;;;;;18.83;45.52;102531.47;5029496;28;20133;-73
2021/12/14 02:49:17;;;;;;;2.38;1.10;;;;;;;18.81;45.48;102544.88;5017669;28;20046;-74
2021/12/14 02:51:51;;;;;;;2.08;1.10;;;;;;;18.80;45.48;102550.31;5013422;28;20042;-73
2021/12/14 02:54:36;;;;;;;2.45;1.02;;;;;;;18.78;45.44;102551.22;5005891;28;20039;-73
2021/12/14 02:57:13;;;;;;;1.57;1.00;;;;;;;18.77;45.40;102537.94;5032317;28;20074;-73
2021/12/14 02:59:42;;;;;;;2.65;1.15;;;;;;;18.75;45.49;102551.34;5008548;28;20047;-73
2021/12/14 03:02:14;;;;;;;1.88;1.10;;;;;;;18.74;45.69;102538.91;4994659;28;20771;-72
2021/12/14 03:04:50;;;;;;;2.13;1.02;;;;;;;18.75;45.46;102529.09;4999678;28;20154;-73
2021/12/14 03:07:21;;;;;;;2.33;1.23;;;;;;;18.72;45.59;102521.19;5003370;28;20093;-71
2021/12/14 03:09:57;;;;;;;1.45;1.00;;;;;;;18.72;45.42;102529.22;5012971;28;20046;-73
2021/12/14 03:12:34;;;;;;;1.27;0.82;;;;;;;18.70;45.57;102518.59;5009964;28;20053;-71
2021/12/14 03:15:17;;;;;;;1.27;0.90;;;;;;;18.69;45.61;102535.56;5016479;28;20069;-73
2021/12/14 03:17:45;;;;;;;;;;;;;;;18.66;45.50;102533.00;5012137;28;20042;-73
2021/12/14 03:20:24;;;;;;;1.30;0.90;;;;;;;18.66;45.57;102524.13;5012626;28;20423;-72
2021/12/14 03:23:37;;;;;;;1.48;1.05;;;;;;;18.65;45.57;102523.22;5009025;28;20038;-72
2021/12/14 03:26:09;;;;;;;1.55;1.00;;;;;;;18.62;45.51;102510.88;5008149;28;20056;-72
2021/12/14 03:28:37;;;;;;;1.40;1.00;;;;;;;18.62;45.63;102510.88;5010908;28;20053;-72
2021/12/14 03:31:09;;;;;;;1.60;0.90;;;;;;;18.61;45.61;102514.47;5012170;28;20039;-71
2021/12/14 03:33:53;;;;;;;1.47;0.90;;;;;;;18.60;45.66;102515.41;5012449;28;20038;-72
2021/12/14 03:36:29;;;;;;;2.35;0.93;;;;;;;18.59;45.60;102510.97;5009443;28;20038;-72
2021/12/14 03:39:32;;;;;;;1.38;1.00;;;;;;;18.58;45.74;102513.72;5010402;28;20038;-71
2021/12/14 03:42:18;;;;;;;2.35;1.20;;;;;;;18.57;45.60;102518.16;5008532;28;20039;-72
2021/12/14 03:44:54;;;;;;;1.33;0.90;;;;;;;18.55;45.65;102514.72;5008921;28;20034;-72
2021/12/14 03:47:36;;;;;;;1.40;1.10;;;;;;;18.54;45.75;102515.63;5032368;28;20102;-71
2021/12/14 03:50:15;;;;;;;2.58;1.13;;;;;;;18.54;45.65;102514.75;5031681;28;20053;-72
2021/12/14 03:52:42;;;;;;;1.75;0.90;;;;;;;18.52;45.75;102514.81;5015590;28;20475;-72
2021/12/14 03:55:30;;;;;;;1.08;0.77;;;;;;;18.50;45.80;102519.34;5015887;28;20488;-71
2021/12/14 03:57:56;;;;;;;1.50;0.97;;;;;;;18.50;46.11;102527.34;5015802;28;20043;-72
2021/12/14 04:00:34;;;;;;;1.67;0.93;;;;;;;18.50;45.80;102542.50;5032085;28;20142;-73
2021/12/14 04:03:08;;;;;;;1.58;0.90;;;;;;;18.49;45.76;102554.97;5026268;28;20839;-71
2021/12/14 04:05:46;;;;;;;1.60;1.10;;;;;;;18.47;45.75;102551.47;4999697;28;20042;-72
2021/12/14 04:08:15;;;;;;;1.40;0.90;;;;;;;18.46;45.74;102547.97;5016067;28;20271;-71
2021/12/14 04:10:45;;;;;;;1.85;1.00;;;;;;;18.45;45.82;102550.69;5015527;28;20113;-71
2021/12/14 04:13:17;;;;;;;1.75;1.00;;;;;;;18.45;45.82;102554.22;5014444;28;20037;-71
2021/12/14 04:15:43;;;;;;;2.17;0.90;;;;;;;18.44;45.90;102556.97;5013205;28;20042;-73
2021/12/14 04:18:10;;;;;;;1.88;1.00;;;;;;;18.42;45.85;102548.13;5010484;28;20038;-72
2021/12/14 04:20:41;;;;;;;2.05;1.05;;;;;;;18.42;45.86;102551.66;5017084;28;20045;-73
2021/12/14 04:23:17;;;;;;;1.85;0.82;;;;;;;18.41;45.95;102560.63;5018063;28;20133;-71
2021/12/14 04:25:46;;;;;;;1.63;1.00;;;;;;;18.40;45.95;102560.66;5008953;28;20046;-73
2021/12/14 04:28:19;;;;;;;2.28;0.80;;;;;;;18.38;45.83;102544.69;5011837;28;20192;-71
2021/12/14 04:30:46;;;;;;;1.75;0.90;;;;;;;18.38;46.02;102538.47;5010815;28;20140;-72
2021/12/14 04:33:22;;;;;;;1.63;0.85;;;;;;;18.37;45.89;102532.28;5010310;28;20034;-73
2021/12/14 04:35:48;;;;;;;1.23;0.80;;;;;;;18.37;45.89;102544.72;5014195;28;20050;-72
2021/12/14 04:38:22;;;;;;;1.80;1.00;;;;;;;18.36;45.98;102543.88;5006086;28;20042;-71
2021/12/14 04:51:59;;;;;;;1.17;0.80;;;;;;;18.31;45.93;102537.84;5008145;28;20039;-72
2021/12/14 04:54:35;;;;;;;1.08;0.85;;;;;;;18.29;46.00;102532.53;5017390;28;20038;-70
2021/12/14 04:57:15;;;;;;;1.75;0.90;;;;;;;18.28;46.04;102533.47;5006053;28;20531;-71
2021/12/14 04:59:41;;;;;;;2.05;0.90;;;;;;;18.27;45.95;102530.88;5006359;28;20042;-72
2021/12/14 05:02:21;;;;;;;1.50;1.00;;;;;;;18.26;45.88;102535.31;5009470;28;20085;-71
2021/12/14 05:05:07;;;;;;;1.30;0.75;;;;;;;18.24;46.15;102523.84;5004941;28;20071;-72
2021/12/14 05:10:16;;;;;;;1.05;0.90;;;;;;;18.24;46.09;102517.63;5013561;28;20375;-73
2021/12/14 05:12:41;;;;;;;1.55;0.70;;;;;;;18.23;46.01;102510.53;5021760;28;20046;-72
2021/12/14 05:15:16;;;;;;;1.23;0.82;;;;;;;18.22;46.27;102501.69;5005225;28;20086;-72
2021/12/14 05:17:48;;;;;;;0.90;0.80;;;;;;;18.22;46.33;102503.44;5008227;28;20145;-71
2021/12/14 05:20:17;;;;;;;1.10;0.80;;;;;;;18.25;46.44;102509.56;4993417;28;21211;-72
2021/12/14 05:22:46;;;;;;;1.25;0.90;;;;;;;18.27;46.55;102510.38;5012835;28;20038;-71
2021/12/14 05:25:26;;;;;;;1.88;1.00;;;;;;;18.33;46.53;102519.09;5010353;28;20066;-71
2021/12/14 05:28:01;;;;;;;0.93;0.82;;;;;;;18.35;46.38;102518.09;5009489;28;20051;-71
2021/12/14 05:30:40;;;;;;;1.92;0.70;;;;;;;18.40;46.53;102509.94;5005773;28;20043;-72
2021/12/14 05:33:32;;;;;;;1.27;0.80;;;;;;;18.44;46.20;102504.41;5009463;28;20082;-72
2021/12/14 05:36:08;;;;;;;1.00;0.90;;;;;;;18.50;46.21;102510.47;5011885;28;20625;-72
2021/12/14 05:38:53;;;;;;;1.10;0.70;;;;;;;18.52;46.37;102514.81;5024066;28;20093;-73
2021/12/14 05:44:25;;;;;;;1.23;0.90;;;;;;;18.57;46.26;102517.31;5012172;28;20202;-71
2021/12/14 05:46:57;;;;;;;1.30;0.70;;;;;;;18.60;46.19;102519.88;5013718;28;20043;-73
2021/12/14 05:49:37;;;;;;;1.90;0.90;;;;;;;18.60;46.05;102526.06;5014532;28;20053;-71
2021/12/14 05:52:11;;;;;;;0.95;0.85;;;;;;;18.60;46.03;102520.72;5025696;28;20567;-73
2021/12/14 05:54:38;;;;;;;1.98;1.00;;;;;;;18.61;46.08;102530.50;4986162;28;20043;-72
2021/12/14 05:57:12;;;;;;;1.50;0.90;;;;;;;18.62;46.05;102534.91;5003231;28;20065;-72
2021/12/14 05:59:38;;;;;;;1.27;0.90;;;;;;;18.63;46.04;102535.75;5013806;28;20077;-72
2021/12/14 06:02:07;;;;;;;1.45;0.90;;;;;;;18.63;45.93;102539.31;5002858;28;20585;-72
2021/12/14 06:04:41;;;;;;;1.40;1.10;;;;;;;18.62;46.00;102537.56;5015700;28;20048;-72
2021/12/14 06:07:09;;;;;;;3.45;1.00;;;;;;;18.63;46.12;102536.66;5001785;28;20034;-72
2021/12/14 06:09:43;;;;;;;1.98;0.80;;;;;;;18.66;45.98;102541.00;5002169;28;20477;-72
2021/12/14 06:12:28;;;;;;;1.20;0.90;;;;;;;18.67;46.03;102536.53;4998719;28;20429;-71
2021/12/14 06:14:58;;;;;;;2.55;1.00;;;;;;;18.68;46.05;102533.81;5011553;28;20055;-73
2021/12/14 06:17:39;;;;;;;2.05;0.90;;;;;;;18.70;46.06;102544.41;5013144;28;20073;-72
2021/12/14 06:20:22;;;;;;;4.55;1.42;;;;;;;18.74;46.17;102548.72;5020080;28;20038;-72
2021/12/14 06:22:52;;;;;;;2.35;1.00;;;;;;;18.77;46.26;102540.63;5022624;28;20073;-72
2021/12/14 06:25:38;;;;;;;4.40;1.00;;;;;;;18.81;46.20;102552.91;5013670;28;20062;-71
2021/12/14 06:28:03;;;;;;;11.57;1.30;;;;;;;18.85;46.17;102559.00;5009570;28;20052;-71
2021/12/14 06:30:34;;;;;;;4.80;1.42;;;;;;;18.89;46.44;102561.50;5012721;28;28016;-69
2021/12/14 06:33:06;;;;;;;5.55;1.15;;;;;;;18.95;46.50;102563.09;5010671;28;20460;-72
2021/12/14 06:35:46;;;;;;;5.88;1.40;;;;;;;18.98;46.51;102564.75;5018554;28;20042;-72
2021/12/14 06:38:33;;;;;;;10.20;1.10;;;;;;;19.00;46.54;102557.56;5026729;28;20121;-71
2021/12/14 06:41:09;;;;;;;4.65;1.38;;;;;;;19.02;46.54;102567.28;4997112;28;20039;-72
2021/12/14 06:43:53;;;;;;;8.82;1.10;;;;;;;19.04;46.59;102572.56;5012913;28;20122;-71
2021/12/14 06:46:42;;;;;;;3.75;1.33;;;;;;;19.05;46.56;102566.28;4996652;28;20489;-71
2021/12/14 06:49:16;;;;;;;8.45;1.65;;;;;;;19.05;46.63;102572.50;5012107;28;20039;-73
2021/12/14 06:51:50;;;;;;;8.70;1.52;;;;;;;19.07;46.66;102577.81;5000240;28;20231;-75
2021/12/14 06:54:44;;;;;;;11.52;1.58;;;;;;;19.08;46.64;102585.75;5000267;28;20491;-71
2021/12/14 06:57:42;;;;;;;8.13;1.45;;;;;;;19.08;46.56;102591.09;5024487;28;20061;-71
2021/12/14 07:00:18;;;;;;;8.33;1.53;;;;;;;19.09;46.79;102594.63;5013123;28;20073;-70
2021/12/14 07:02:50;;;;;;;12.85;1.70;;;;;;;19.09;46.82;102599.97;5011442;28;20133;-71
2021/12/14 07:05:34;;;;;;;5.07;1.60;;;;;;;19.08;46.74;102593.78;5027550;28;20074;-72
2021/12/14 07:08:12;;;;;;;6.15;1.50;;;;;;;19.08;46.75;102595.56;5014656;28;20066;-72
2021/12/14 07:10:42;;;;;;;7.13;1.40;;;;;;;19.06;46.71;102606.31;4998079;28;20039;-72
2021/12/14 07:13:20;;;;;;;5.72;1.35;;;;;;;19.05;46.69;102603.72;4998076;28;20071;-72
2021/12/14 07:15:48;;;;;;;6.75;1.50;;;;;;;19.03;46.83;102602.88;4997467;28;20474;-72
2021/12/14 07:18:14;;;;;;;3.92;1.52;;;;;;;19.02;46.78;102599.34;5009323;28;20519;-71
2021/12/14 07:20:45;;;;;;;5.97;1.50;;;;;;;19.00;46.76;102603.00;5018196;28;20053;-71
2021/12/14 07:23:28;;;;;;;7.43;1.50;;;;;;;18.99;46.84;102598.56;5017511;28;20500;-69
2021/12/14 07:26:11;;;;;;;3.70;1.30;;;;;;;18.99;46.92;102607.50;5016709;28;20069;-70
2021/12/14 07:28:44;;;;;;;3.63;1.20;;;;;;;18.99;47.04;102607.50;5030532;28;20042;-70
2021/12/14 07:31:22;;;;;;;7.88;1.48;;;;;;;19.00;47.09;102611.00;5031494;28;20463;-69
2021/12/14 07:33:56;;;;;;;5.70;1.38;;;;;;;19.01;47.03;102618.09;5017497;28;20125;-72
2021/12/14 07:36:27;;;;;;;5.78;1.80;;;;;;;19.02;47.13;102617.19;5017167;28;20054;-71
2021/12/14 07:39:02;;;;;;;5.20;1.23;;;;;;;19.02;46.94;102622.53;5017488;28;20141;-70
2021/12/14 07:41:32;;;;;;;4.40;1.30;;;;;;;19.02;46.94;102627.88;5017491;28;20034;-70
2021/12/14 07:44:12;;;;;;;5.80;1.40;;;;;;;19.02;47.00;102627.88;5017672;28;20046;-71
2021/12/14 07:47:06;;;;;;;10.20;1.50;;;;;;;19.01;46.97;102628.78;5017503;28;20046;-70
2021/12/14 07:49:41;;;;;;;7.20;1.67;;;;;;;18.99;46.87;102636.88;5016781;28;20527;-72
2021/12/14 07:52:21;;;;;;;3.88;1.52;;;;;;;18.99;46.89;102647.56;5017514;28;20089;-69
2021/12/14 07:54:48;;;;;;;6.88;1.55;;;;;;;18.98;46.99;102643.16;5017617;28;20038;-70
2021/12/14 07:57:24;;;;;;;5.00;1.33;;;;;;;18.98;46.90;102648.50;5016499;28;25954;-72
2021/12/14 08:00:03;;;;;;;3.83;1.40;;;;;;;18.99;46.91;102646.69;5016752;28;20035;-71
2021/12/14 08:02:42;;;;;;;7.40;1.42;;;;;;;18.99;46.83;102652.03;5014159;28;20058;-70
2021/12/14 08:05:28;;;;;;;3.53;1.58;;;;;;;18.99;46.78;102646.69;5016976;28;20046;-70
2021/12/14 08:08:30;;;;;;;6.65;1.30;;;;;;;18.99;46.87;102657.38;5016975;28;20046;-71
2021/12/14 08:11:29;;;;;;;4.55;1.10;;;;;;;18.99;46.71;102654.69;5016887;28;20042;-71
2021/12/14 08:14:04;;;;;;;4.22;1.30;;;;;;;18.97;46.82;102648.56;5013260;28;20142;-70
2021/12/14 08:16:58;;;;;;;4.53;1.40;;;;;;;18.98;46.67;102655.63;5016751;28;20030;-71
2021/12/14 08:19:40;;;;;;;3.58;1.40;;;;;;;18.98;46.74;102651.16;5016809;28;20065;-70
2021/12/14 08:22:24;;;;;;;4.10;1.25;;;;;;;18.98;46.75;102651.16;5016578;28;20069;-70
2021/12/14 08:24:50;;;;;;;;;;;;;;;18.96;46.60;102646.81;5017024;28;20054;-72
2021/12/14 08:27:21;;;;;;;4.32;1.30;;;;;;;18.98;46.62;102656.50;5016949;28;19932;-71
2021/12/14 08:29:53;;;;;;;4.32;1.40;;;;;;;18.98;46.56;102653.84;4997560;28;20038;-71
2021/12/14 08:32:24;;;;;;;3.80;1.40;;;;;;;18.97;46.59;102656.59;5006138;28;20042;-70
2021/12/14 08:34:54;;;;;;;4.18;1.40;;;;;;;18.97;46.57;102656.59;4998102;28;20046;-71
2021/12/14 08:37:33;;;;;;;3.30;1.30;;;;;;;18.96;46.58;102652.16;5016505;28;20057;-70
2021/12/14 08:40:18;;;;;;;2.53;1.33;;;;;;;18.96;46.57;102655.69;4997270;28;20091;-72
2021/12/14 08:42:59;;;;;;;4.05;1.45;;;;;;;18.97;46.63;102657.44;5012177;28;20039;-71
2021/12/14 08:45:33;;;;;;;4.60;1.40;;;;;;;18.97;46.46;102653.91;4996829;28;20042;-70
2021/12/14 08:48:01;;;;;;;;;;;;;;;18.96;46.42;102662.84;4997569;28;20074;-71
2021/12/14 08:50:30;;;;;;;3.63;1.30;;;;;;;18.97;46.50;102667.28;5015045;28;19922;-70
2021/12/14 08:52:57;;;;;;;1.95;1.33;;;;;;;18.96;46.46;102669.06;5031701;28;20034;-71
2021/12/14 08:55:32;;;;;;;2.05;1.20;;;;;;;18.95;46.51;102664.63;5016331;28;20070;-70
2021/12/14 08:57:59;;;;;;;2.10;1.30;;;;;;;18.96;46.45;102661.03;5016252;28;20038;-70
2021/12/14 09:00:39;;;;;;;3.20;1.35;;;;;;;18.97;46.46;102673.47;5010532;28;20045;-70
2021/12/14 09:03:12;;;;;;;2.85;1.17;;;;;;;19.00;46.54;102662.69;4998924;28;20066;-71
2021/12/14 09:05:49;;;;;;;2.38;1.35;;;;;;;19.03;46.45;102673.22;5002716;28;20043;-72
2021/12/14 09:08:20;;;;;;;3.67;1.30;;;;;;;19.07;46.55;102669.53;5016217;28;20054;-75
2021/12/14 09:10:51;;;;;;;3.40;1.38;;;;;;;19.13;46.65;102670.25;5016465;28;20038;-73
2021/12/14 09:13:16;;;;;;;2.75;1.20;;;;;;;19.19;46.48;102673.53;5015915;28;20504;-72
2021/12/14 09:16:16;;;;;;;4.18;1.67;;;;;;;19.27;46.36;102670.56;5015902;28;20039;-75
2021/12/14 09:18:51;;;;;;;7.03;3.90;;;;;;;19.33;46.44;102666.81;4995922;28;20133;-71
2021/12/14 09:21:25;;;;;;;8.02;3.10;;;;;;;19.37;46.32;102665.75;5010536;28;20551;-70
2021/12/14 09:23:58;;;;;;;4.78;2.40;;;;;;;19.42;46.26;102663.78;4999509;28;20078;-70
2021/12/14 09:26:35;;;;;;;4.63;2.00;;;;;;;19.48;46.33;102662.66;5015856;28;20051;-70
2021/12/14 09:29:05;;;;;;;3.35;1.90;;;;;;;19.53;46.15;102663.38;5015561;28;20077;-70
2021/12/14 09:31:35;;;;;;;4.72;2.00;;;;;;;19.59;46.11;102668.47;5015931;28;20065;-72
2021/12/14 09:34:01;;;;;;;2.15;1.48;;;;;;;19.64;45.97;102662.94;5015797;28;20058;-71
2021/12/14 09:36:29;;;;;;;3.47;1.60;;;;;;;19.70;45.95;102665.34;5015709;28;20559;-71
2021/12/14 09:39:07;;;;;;;3.30;1.80;;;;;;;19.76;45.81;102662.44;5016211;28;20510;-70
2021/12/14 09:41:35;;;;;;;3.55;2.40;;;;;;;19.81;45.86;102665.78;5015337;28;20046;-71
2021/12/14 09:44:06;;;;;;;3.67;2.30;;;;;;;19.88;45.79;102666.44;5015324;28;20114;-69
2021/12/14 09:46:32;;;;;;;3.53;2.17;;;;;;;19.94;45.74;102665.31;5015461;28;20101;-69
2021/12/14 09:49:02;;;;;;;3.75;1.85;;;;;;;20.02;45.74;102664.09;5015600;28;20039;-68
2021/12/14 09:51:35;;;;;;;4.50;2.30;;;;;;;20.12;45.62;102658.34;5014879;28;20457;-71
2021/12/14 09:54:06;;;;;;;3.00;1.73;;;;;;;20.21;45.63;102662.41;5014243;28;20070;-70
2021/12/14 09:56:41;;;;;;;2.42;2.03;;;;;;;20.29;45.53;102669.19;5015512;28;20054;-71
2021/12/14 09:59:09;;;;;;;2.38;1.95;;;;;;;20.37;45.62;102668.00;5015401;28;20046;-75
2021/12/14 10:01:40;;;;;;;3.70;2.00;;;;;;;20.43;45.31;102670.41;5016125;28;20041;-75
2021/12/14 10:04:19;;;;;;;2.50;1.80;;;;;;;20.51;45.26;102664.72;5015840;28;20044;-76
2021/12/14 10:06:45;;;;;;;2.28;1.80;;;;;;;20.55;45.13;102669.00;5015932;28;20046;-75
2021/12/14 10:09:18;;;;;;;4.00;1.85;;;;;;;20.62;45.02;102670.47;5018818;28;20038;-75
2021/12/14 10:14:24;;;;;;;2.65;1.50;;;;;;;20.71;44.95;102670.06;5019317;28;20042;-75
2021/12/14 10:16:51;;;;;;;2.47;1.70;;;;;;;20.77;44.84;102660.91;5019192;28;20027;-74
2021/12/14 10:19:23;;;;;;;4.53;2.00;;;;;;;20.82;44.79;102660.69;5018733;28;20082;-70
2021/12/14 10:21:55;;;;;;;4.00;1.95;;;;;;;20.85;44.57;102669.50;5014316;28;20043;-71
2021/12/14 10:24:22;;;;;;;2.53;1.60;;;;;;;20.86;44.35;102657.81;5019064;28;20493;-70
2021/12/14 10:26:55;;;;;;;2.60;1.85;;;;;;;20.90;44.33;102661.25;5029987;28;20086;-69
2021/12/14 10:29:24;;;;;;;3.42;2.05;;;;;;;20.93;44.36;102659.28;5001836;28;20421;-69
2021/12/14 10:32:03;;;;;;;2.17;1.48;;;;;;;20.98;44.29;102659.09;5018052;28;20058;-73
2021/12/14 10:34:35;;;;;;;9.25;1.98;;;;;;;21.04;44.52;102658.78;5018520;28;20065;-73
2021/12/14 10:37:17;;;;;;;4.05;1.80;;;;;;;21.12;44.29;102665.59;5018535;28;20042;-73
2021/12/14 10:45:19;;;;;;;4.50;1.58;;;;;;;21.36;44.32;102664.47;5018355;28;20054;-75
2021/12/14 10:47:45;;;;;;;3.47;1.70;;;;;;;21.44;44.25;102665.91;5018832;28;20032;-72
2021/12/14 10:50:17;;;;;;;3.85;1.73;;;;;;;21.52;44.22;102667.28;5017925;28;20809;-74
2021/12/14 10:52:44;;;;;;;2.97;1.60;;;;;;;21.59;43.99;102670.59;5018681;28;20050;-74
2021/12/14 10:55:21;;;;;;;3.20;1.77;;;;;;;21.67;43.74;102672.91;5018621;28;20127;-74
2021/12/14 10:57:47;;;;;;;3.00;1.90;;;;;;;21.72;43.64;102668.16;5018123;28;20035;-70
2021/12/14 11:00:34;;;;;;;2.53;1.83;;;;;;;21.78;43.74;102664.31;5017977;28;20045;-69
2021/12/14 11:03:07;;;;;;;3.13;1.60;;;;;;;21.78;43.60;102665.16;5018133;28;20035;-67
2021/12/14 11:05:36;;;;;;;4.30;1.87;;;;;;;21.80;43.33;102657.91;5017871;28;20049;-72
2021/12/14 11:08:06;;;;;;;5.00;2.00;;;;;;;21.81;43.43;102656.97;5017837;28;20042;-69
2021/12/14 11:10:40;;;;;;;3.33;1.70;;;;;;;21.86;43.23;102654.06;5018027;28;20035;-72
2021/12/14 11:13:11;;;;;;;2.85;1.80;;;;;;;21.93;43.46;102660.84;5017681;28;20061;-70
2021/12/14 11:15:49;;;;;;;3.63;1.65;;;;;;;22.02;43.46;102659.53;5018102;28;20038;-71
2021/12/14 11:18:20;;;;;;;2.92;1.73;;;;;;;;;;5016634;28;20050;-70
2021/12/14 11:21:07;;;;;;;2.53;1.73;;;;;;;22.23;43.04;102646.81;5017849;28;20576;-70
2021/12/14 11:23:40;;;;;;;2.28;1.58;;;;;;;22.31;43.20;102644.63;5017652;28;20047;-70
2021/12/14 11:26:17;;;;;;;11.95;1.65;;;;;;;22.39;42.72;102648.72;5017469;28;20046;-71
2021/12/14 11:28:58;;;;;;;3.38;1.85;;;;;;;22.45;42.91;102643.06;5017831;28;20046;-74
2021/12/14 11:31:54;;;;;;;2.83;1.70;;;;;;;22.51;42.58;102647.25;5018306;28;20121;-70
2021/12/14 11:34:37;;;;;;;2.22;1.65;;;;;;;22.55;42.68;102644.31;5017271;28;20043;-71
2021/12/14 11:37:13;;;;;;;2.13;1.40;;;;;;;22.57;42.41;102644.25;5017291;28;20481;-71
2021/12/14 11:39:49;;;;;;;2.38;1.52;;;;;;;22.60;42.23;102636.88;5017380;28;20035;-71
2021/12/14 11:42:23;;;;;;;2.63;1.50;;;;;;;22.62;42.43;102628.72;5017499;28;20886;-73
2021/12/14 11:45:04;;;;;;;1.88;1.50;;;;;;;22.63;42.17;102625.97;5026845;28;20042;-68
2021/12/14 11:50:41;;;;;;;2.35;1.60;;;;;;;22.64;42.14;102624.16;5017343;28;20046;-69
2021/12/14 11:53:06;;;;;;;3.58;1.60;;;;;;;22.62;42.28;102617.97;5017000;28;20126;-70
2021/12/14 11:55:55;;;;;;;3.70;1.60;;;;;;;22.61;41.98;102614.44;5017619;28;20495;-71
2021/12/14 11:58:33;;;;;;;2.55;1.50;;;;;;;22.62;41.95;102607.22;5017196;28;20401;-74
2021/12/14 12:01:20;;;;;;;4.28;1.90;;;;;;;22.63;42.10;102615.22;5017033;28;20476;-69
2021/12/14 12:03:58;;;;;;;1.92;1.60;;;;;;;22.64;41.83;102618.78;5017319;28;20042;-75
2021/12/14 12:09:28;;;;;;;3.92;1.52;;;;;;;22.64;41.87;102621.47;5017013;28;20046;-71
2021/12/14 12:12:04;;;;;;;3.40;1.50;;;;;;;22.63;41.81;102622.41;5016978;28;20075;-70
2021/12/14 12:14:56;;;;;;;3.38;1.80;;;;;;;22.62;42.04;102628.72;5017100;28;20050;-71
2021/12/14 12:17:43;;;;;;;2.17;1.50;;;;;;;22.61;42.15;102621.63;5017024;28;20524;-70
2021/12/14 12:20:38;;;;;;;2.60;1.65;;;;;;;22.58;42.03;102617.28;5017312;28;20050;-73
2021/12/14 12:23:14;;;;;;;2.58;1.70;;;;;;;22.57;41.96;102620.06;5016763;28;20065;-70
2021/12/14 12:25:59;;;;;;;2.20;1.60;;;;;;;22.54;42.07;102621.06;5016017;28;20085;-69
2021/12/14 12:28:38;;;;;;;13.00;9.75;;;;;;;22.52;42.03;102624.78;5016765;28;20042;-69
2021/12/14 12:31:12;;;;;;;7.72;5.00;;;;;;;22.50;41.93;102616.81;5015496;28;20154;-69
2021/12/14 12:33:44;;;;;;;6.22;4.82;;;;;;;22.47;41.70;102625.94;5016014;28;20579;-70
2021/12/14 12:36:23;;;;;;;5.22;4.15;;;;;;;22.44;41.69;102615.31;4996677;28;20472;-68
2021/12/14 12:38:54;;;;;;;5.22;4.35;;;;;;;22.42;41.56;102622.59;5000322;28;20135;-70
2021/12/14 12:41:38;;;;;;;5.65;4.25;;;;;;;22.39;41.82;102620.03;5015921;28;20374;-71
2021/12/14 12:44:15;;;;;;;5.72;4.68;;;;;;;22.37;41.76;102621.06;5031941;28;20042;-71
2021/12/14 12:47:04;;;;;;;4.85;4.25;;;;;;;22.34;41.89;102617.59;5016359;28;20050;-71